createdAt,value
2017-02-21T00:00:38.730Z,0
2017-02-21T00:03:03.185Z,0
2017-02-21T00:05:26.632Z,0
2017-02-21T00:07:50.027Z,0
2017-02-21T00:10:14.418Z,0
2017-02-21T00:14:41.270Z,0
2017-02-21T00:17:04.799Z,0
2017-02-21T00:19:28.269Z,0
2017-02-21T00:21:51.596Z,0
2017-02-21T00:24:15.171Z,0
2017-02-21T00:26:39.539Z,0
2017-02-21T00:29:11.789Z,0
2017-02-21T00:31:38.197Z,0
2017-02-21T00:34:05.091Z,0
2017-02-21T00:36:31.565Z,0
2017-02-21T00:38:56.074Z,0
2017-02-21T00:42:58.305Z,0
2017-02-21T00:45:21.454Z,0
2017-02-21T00:47:45.085Z,0
2017-02-21T00:50:08.348Z,0
2017-02-21T00:52:31.775Z,0
2017-02-21T00:54:55.041Z,0
2017-02-21T00:57:10.221Z,0
2017-02-21T00:59:35.015Z,0
2017-02-21T01:01:58.687Z,0
2017-02-21T01:04:22.190Z,0
2017-02-21T01:06:46.562Z,0
2017-02-21T01:09:18.484Z,0
2017-02-21T01:11:41.932Z,0
2017-02-21T01:14:05.318Z,0
2017-02-21T01:16:29.897Z,0
2017-02-21T01:18:53.324Z,0
2017-02-21T01:21:17.026Z,0
2017-02-21T01:23:40.399Z,0
2017-02-21T01:26:05.514Z,0
2017-02-21T01:28:32.379Z,0
2017-02-21T01:30:56.961Z,0
2017-02-21T01:34:56.671Z,0
2017-02-21T01:37:21.339Z,0
2017-02-21T01:39:44.709Z,0
2017-02-21T01:42:09.328Z,0
2017-02-21T01:44:32.853Z,0
2017-02-21T01:46:56.236Z,0
2017-02-21T01:49:19.575Z,0
2017-02-21T01:51:43.063Z,0
2017-02-21T01:54:07.525Z,0
2017-02-21T01:56:31.594Z,0
2017-02-21T01:58:55.914Z,0
2017-02-21T02:01:19.311Z,0
2017-02-21T02:03:43.893Z,0
2017-02-21T02:06:07.321Z,0
2017-02-21T02:08:32.082Z,0
2017-02-21T02:10:57.095Z,0
2017-02-21T02:13:20.656Z,0
2017-02-21T02:15:44.343Z,0
2017-02-21T02:18:09.052Z,0
2017-02-21T02:20:32.853Z,0
2017-02-21T02:22:56.514Z,0
2017-02-21T02:25:19.866Z,0
2017-02-21T02:27:43.388Z,0
2017-02-21T02:30:07.903Z,0
2017-02-21T02:32:31.980Z,0
2017-02-21T02:34:55.524Z,0
2017-02-21T02:37:19.445Z,0
2017-02-21T02:39:43.020Z,0
2017-02-21T02:42:06.923Z,0
2017-02-21T02:44:32.417Z,0
2017-02-21T02:46:56.805Z,0
2017-02-21T02:49:20.177Z,0
2017-02-21T02:51:44.653Z,0
2017-02-21T02:54:09.138Z,0
2017-02-21T02:56:32.759Z,0
2017-02-21T02:58:58.148Z,0
2017-02-21T03:01:21.677Z,0
2017-02-21T03:03:45.350Z,0
2017-02-21T03:06:09.939Z,0
2017-02-21T03:08:33.604Z,0
2017-02-21T03:10:56.975Z,0
2017-02-21T03:13:29.582Z,0
2017-02-21T03:15:54.077Z,0
2017-02-21T03:18:17.550Z,0
2017-02-21T03:20:41.174Z,0
2017-02-21T03:23:06.751Z,0
2017-02-21T03:25:22.775Z,0
2017-02-21T03:27:48.409Z,0
2017-02-21T03:30:11.935Z,0
2017-02-21T03:32:35.460Z,0
2017-02-21T03:34:59.929Z,0
2017-02-21T03:37:23.377Z,0
2017-02-21T03:39:46.930Z,0
2017-02-21T03:42:10.495Z,0
2017-02-21T03:44:33.923Z,0
2017-02-21T03:46:57.290Z,0
2017-02-21T03:49:20.689Z,0
2017-02-21T03:51:44.051Z,0
2017-02-21T03:54:08.464Z,0
2017-02-21T03:56:33.948Z,0
2017-02-21T03:58:57.310Z,0
2017-02-21T04:01:20.750Z,0
2017-02-21T04:03:44.134Z,0
2017-02-21T04:06:07.644Z,0
2017-02-21T04:08:31.104Z,0
2017-02-21T04:10:55.584Z,0
2017-02-21T04:13:20.953Z,0
2017-02-21T04:15:44.442Z,0
2017-02-21T04:18:08.778Z,0
2017-02-21T04:20:32.130Z,0
2017-02-21T04:22:55.552Z,0
2017-02-21T04:25:19.841Z,0
2017-02-21T04:27:43.346Z,0
2017-02-21T04:30:06.768Z,0
2017-02-21T04:32:30.378Z,0
2017-02-21T04:34:53.890Z,0
2017-02-21T04:37:17.373Z,0
2017-02-21T04:39:41.687Z,0
2017-02-21T04:43:42.701Z,0
2017-02-21T04:46:06.238Z,0
2017-02-21T04:48:31.636Z,0
2017-02-21T04:50:55.966Z,0
2017-02-21T04:53:22.129Z,0
2017-02-21T04:55:47.348Z,0
2017-02-21T04:58:12.052Z,0
2017-02-21T05:00:37.241Z,0
2017-02-21T05:03:00.289Z,0
2017-02-21T05:05:25.347Z,0
2017-02-21T05:07:51.871Z,0
2017-02-21T05:10:08.280Z,0
2017-02-21T05:12:32.221Z,0
2017-02-21T05:14:55.660Z,0
2017-02-21T05:17:21.020Z,0
2017-02-21T05:19:45.617Z,0
2017-02-21T05:22:08.995Z,0
2017-02-21T05:24:32.605Z,0
2017-02-21T05:26:58.054Z,0
2017-02-21T05:29:22.654Z,0
2017-02-21T05:31:46.233Z,0
2017-02-21T05:34:10.612Z,0
2017-02-21T05:36:33.909Z,0
2017-02-21T05:38:58.371Z,0
2017-02-21T05:41:21.837Z,0
2017-02-21T05:43:45.282Z,0
2017-02-21T05:46:08.842Z,0
2017-02-21T05:48:32.264Z,0
2017-02-21T05:50:55.675Z,0
2017-02-21T05:53:19.268Z,0
2017-02-21T05:55:29.538Z,0
2017-02-21T05:57:54.187Z,0
2017-02-21T06:00:17.855Z,0
2017-02-21T06:02:41.204Z,0
2017-02-21T06:05:04.514Z,0
2017-02-21T06:07:27.990Z,0
2017-02-21T06:09:51.501Z,0
2017-02-21T06:12:15.220Z,0
2017-02-21T06:14:38.497Z,0
2017-02-21T06:17:17.922Z,0
2017-02-21T06:19:49.228Z,0
2017-02-21T06:22:12.669Z,0
2017-02-21T06:24:36.105Z,4
2017-02-21T06:26:59.669Z,4
2017-02-21T06:29:23.282Z,4
2017-02-21T06:31:48.676Z,4
2017-02-21T06:34:11.958Z,8
2017-02-21T06:36:36.497Z,8
2017-02-21T06:38:59.953Z,12
2017-02-21T06:41:23.353Z,8
2017-02-21T06:43:46.713Z,12
2017-02-21T06:48:12.685Z,20
2017-02-21T06:50:22.799Z,16
2017-02-21T06:52:46.202Z,24
2017-02-21T06:55:01.159Z,20
2017-02-21T06:57:24.532Z,24
2017-02-21T06:59:47.884Z,24
2017-02-21T07:02:11.454Z,28
2017-02-21T07:04:34.857Z,20
2017-02-21T07:10:13.110Z,60
2017-02-21T07:12:36.101Z,64
2017-02-21T07:14:59.677Z,48
2017-02-21T07:17:23.124Z,32
2017-02-21T07:19:47.727Z,52
2017-02-21T07:22:11.233Z,64
2017-02-21T07:24:35.214Z,88
2017-02-21T07:27:01.139Z,92
2017-02-21T07:29:24.329Z,76
2017-02-21T07:31:47.735Z,80
2017-02-21T07:34:11.220Z,108
2017-02-21T07:36:34.625Z,100
2017-02-21T07:38:58.259Z,136
2017-02-21T07:41:21.583Z,180
2017-02-21T07:43:50.507Z,172
2017-02-21T07:55:54.321Z,220
2017-02-21T07:58:17.622Z,208
2017-02-21T08:00:40.949Z,272
2017-02-21T08:03:04.305Z,296
2017-02-21T08:05:27.475Z,284
2017-02-21T08:07:37.604Z,316
2017-02-21T08:10:00.942Z,296
2017-02-21T08:12:24.207Z,352
2017-02-21T08:14:47.483Z,356
2017-02-21T08:17:10.774Z,452
2017-02-21T08:19:34.215Z,516
2017-02-21T08:21:58.550Z,504
2017-02-21T08:24:22.165Z,352
2017-02-21T08:26:45.586Z,360
2017-02-21T08:29:10.094Z,476
2017-02-21T08:31:33.605Z,372
2017-02-21T08:33:58.610Z,384
2017-02-21T08:36:27.446Z,372
2017-02-21T08:38:52.812Z,292
2017-02-21T08:41:16.072Z,256
2017-02-21T08:43:40.093Z,256
2017-02-21T08:46:04.091Z,312
2017-02-21T08:48:27.504Z,296
2017-02-21T08:50:51.758Z,360
2017-02-21T08:53:15.059Z,348
2017-02-21T08:55:38.592Z,396
2017-02-21T08:58:02.120Z,376
2017-02-21T09:00:26.519Z,472
2017-02-21T09:02:49.863Z,464
2017-02-21T09:05:13.863Z,432
2017-02-21T09:07:37.237Z,504
2017-02-21T09:10:00.980Z,756
2017-02-21T09:12:25.088Z,636
2017-02-21T09:14:48.557Z,480
2017-02-21T09:17:17.729Z,404
2017-02-21T09:19:43.781Z,476
2017-02-21T09:29:22.770Z,676
2017-02-21T09:31:47.019Z,540
2017-02-21T09:34:10.828Z,668
2017-02-21T09:36:35.058Z,1100
2017-02-21T09:38:59.961Z,1636
2017-02-21T09:41:23.760Z,1212
2017-02-21T09:43:47.454Z,996
2017-02-21T09:46:10.732Z,612
2017-02-21T09:48:34.684Z,792
2017-02-21T09:50:58.474Z,1064
2017-02-21T09:53:23.037Z,1532
2017-02-21T09:55:48.938Z,1600
2017-02-21T09:58:20.431Z,1344
2017-02-21T10:00:43.973Z,812
2017-02-21T10:03:08.242Z,688
2017-02-21T10:05:31.758Z,616
2017-02-21T10:07:56.078Z,832
2017-02-21T10:10:19.671Z,644
2017-02-21T10:12:43.330Z,644
2017-02-21T10:15:06.839Z,520
2017-02-21T10:17:30.309Z,564
2017-02-21T10:19:53.881Z,556
2017-02-21T10:22:17.570Z,568
2017-02-21T10:24:28.649Z,576
2017-02-21T10:26:53.679Z,560
2017-02-21T10:29:22.345Z,644
2017-02-21T10:31:48.366Z,636
2017-02-21T10:34:16.139Z,852
2017-02-21T10:36:41.646Z,832
2017-02-21T10:39:07.133Z,1020
2017-02-21T10:41:39.522Z,1456
2017-02-21T10:44:07.016Z,1136
2017-02-21T10:46:33.732Z,1056
2017-02-21T10:48:58.957Z,1192
2017-02-21T10:51:25.054Z,1304
2017-02-21T10:53:56.757Z,1308
2017-02-21T10:56:21.329Z,1588
2017-02-21T10:58:46.673Z,1544
2017-02-21T11:01:01.876Z,1212
2017-02-21T11:03:25.622Z,1188
2017-02-21T11:05:49.195Z,1352
2017-02-21T11:08:13.102Z,1380
2017-02-21T11:10:36.976Z,1432
2017-02-21T11:13:00.936Z,1536
2017-02-21T11:15:25.260Z,1332
2017-02-21T11:17:50.350Z,1464
2017-02-21T11:20:14.201Z,1144
2017-02-21T11:22:37.890Z,900
2017-02-21T11:25:01.377Z,1176
2017-02-21T11:27:26.929Z,1220
2017-02-21T11:29:52.721Z,952
2017-02-21T11:32:16.672Z,952
2017-02-21T11:34:40.401Z,1172
2017-02-21T11:37:04.872Z,1164
2017-02-21T11:39:28.317Z,1108
2017-02-21T11:41:52.003Z,1116
2017-02-21T11:46:17.452Z,712
2017-02-21T11:48:41.385Z,1132
2017-02-21T11:51:07.404Z,1296
2017-02-21T11:53:32.964Z,1040
2017-02-21T11:55:56.578Z,1304
2017-02-21T11:58:20.249Z,1472
2017-02-21T12:00:43.915Z,1484
2017-02-21T12:03:07.525Z,1648
2017-02-21T12:05:31.502Z,1620
2017-02-21T12:07:56.273Z,1592
2017-02-21T12:10:20.009Z,1488
2017-02-21T12:12:44.171Z,1512
2017-02-21T12:15:08.778Z,1428
2017-02-21T12:17:32.507Z,1388
2017-02-21T12:21:32.279Z,1400
2017-02-21T12:23:47.452Z,1340
2017-02-21T12:26:13.014Z,1536
2017-02-21T12:28:36.854Z,1596
2017-02-21T12:31:00.556Z,1616
2017-02-21T12:33:24.220Z,1284
2017-02-21T12:35:47.774Z,1292
2017-02-21T12:38:11.547Z,1264
2017-02-21T12:40:36.029Z,1272
2017-02-21T12:42:59.905Z,1156
2017-02-21T12:45:24.907Z,1232
2017-02-21T12:47:48.614Z,1028
2017-02-21T12:50:12.190Z,984
2017-02-21T12:52:35.963Z,1052
2017-02-21T12:54:59.864Z,964
2017-02-21T12:57:23.355Z,836
2017-02-21T12:59:47.187Z,704
2017-02-21T13:02:18.105Z,836
2017-02-21T13:04:43.972Z,844
2017-02-21T13:07:08.489Z,972
2017-02-21T13:09:33.181Z,956
2017-02-21T13:11:58.524Z,848
2017-02-21T13:14:23.834Z,796
2017-02-21T13:16:47.046Z,684
2017-02-21T13:19:10.772Z,832
2017-02-21T13:21:34.600Z,776
2017-02-21T13:23:58.290Z,648
2017-02-21T13:26:21.779Z,548
2017-02-21T13:28:46.300Z,652
2017-02-21T13:31:11.017Z,716
2017-02-21T13:33:34.616Z,556
2017-02-21T13:35:58.278Z,576
2017-02-21T13:38:23.019Z,680
2017-02-21T13:42:23.175Z,716
2017-02-21T13:44:46.942Z,832
2017-02-21T13:47:10.526Z,688
2017-02-21T13:49:34.164Z,784
2017-02-21T13:51:58.908Z,652
2017-02-21T13:54:22.575Z,540
2017-02-21T13:56:47.327Z,468
2017-02-21T13:59:11.671Z,636
2017-02-21T14:01:35.482Z,624
2017-02-21T14:03:59.290Z,712
2017-02-21T14:06:23.054Z,624
2017-02-21T14:08:25.493Z,584
2017-02-21T14:10:49.180Z,568
2017-02-21T14:13:12.774Z,548
2017-02-21T14:15:36.789Z,436
2017-02-21T14:18:00.541Z,336
2017-02-21T14:20:24.085Z,324
2017-02-21T14:22:47.658Z,332
2017-02-21T14:25:12.246Z,336
2017-02-21T14:27:36.047Z,356
2017-02-21T14:29:59.955Z,280
2017-02-21T14:32:23.451Z,252
2017-02-21T14:34:48.563Z,348
2017-02-21T14:37:12.493Z,284
2017-02-21T14:41:38.353Z,468
2017-02-21T14:44:02.360Z,624
2017-02-21T14:46:26.127Z,616
2017-02-21T14:48:49.902Z,588
2017-02-21T14:51:14.067Z,512
2017-02-21T14:53:38.788Z,432
2017-02-21T14:56:02.877Z,460
2017-02-21T14:58:26.612Z,352
2017-02-21T15:00:50.450Z,348
2017-02-21T15:03:06.632Z,324
2017-02-21T15:05:30.138Z,368
2017-02-21T15:07:53.662Z,332
2017-02-21T15:10:17.612Z,312
2017-02-21T15:12:43.006Z,240
2017-02-21T15:15:07.179Z,284
2017-02-21T15:17:31.634Z,228
2017-02-21T15:19:55.379Z,312
2017-02-21T15:22:19.171Z,248
2017-02-21T15:24:42.750Z,320
2017-02-21T15:27:06.638Z,296
2017-02-21T15:29:31.969Z,308
2017-02-21T15:32:10.807Z,264
2017-02-21T15:34:37.514Z,212
2017-02-21T15:37:04.861Z,180
2017-02-21T15:39:31.545Z,176
2017-02-21T15:41:56.106Z,116
2017-02-21T15:44:21.217Z,140
2017-02-21T15:46:46.809Z,124
2017-02-21T15:49:11.441Z,128
2017-02-21T15:51:35.108Z,116
2017-02-21T15:53:58.790Z,120
2017-02-21T15:56:22.540Z,140
2017-02-21T15:58:47.492Z,140
2017-02-21T16:01:11.093Z,108
2017-02-21T16:03:34.702Z,152
2017-02-21T16:05:58.446Z,132
2017-02-21T16:08:34.071Z,120
2017-02-21T16:10:57.846Z,140
2017-02-21T16:13:21.618Z,140
2017-02-21T16:15:45.686Z,140
2017-02-21T16:18:10.304Z,100
2017-02-21T16:20:33.868Z,84
2017-02-21T16:22:57.719Z,88
2017-02-21T16:25:22.507Z,76
2017-02-21T16:27:46.088Z,56
2017-02-21T16:30:09.645Z,56
2017-02-21T16:32:33.251Z,44
2017-02-21T16:34:58.034Z,32
2017-02-21T16:37:21.990Z,28
2017-02-21T16:39:47.874Z,20
2017-02-21T16:42:11.540Z,16
2017-02-21T16:44:26.636Z,12
2017-02-21T16:46:50.185Z,12
2017-02-21T16:51:16.950Z,8
2017-02-21T16:53:40.663Z,8
2017-02-21T16:56:04.297Z,4
2017-02-21T16:58:31.142Z,4
2017-02-21T17:00:54.820Z,4
2017-02-21T17:03:18.367Z,4
2017-02-21T17:05:41.886Z,4
2017-02-21T17:08:05.395Z,0
2017-02-21T17:10:28.848Z,0
2017-02-21T17:12:43.903Z,0
2017-02-21T17:15:07.300Z,0
2017-02-21T17:17:30.738Z,0
2017-02-21T17:19:57.142Z,0
2017-02-21T17:22:22.454Z,0
2017-02-21T17:24:46.098Z,0
2017-02-21T17:27:01.188Z,0
2017-02-21T17:29:24.624Z,0
2017-02-21T17:31:48.180Z,0
2017-02-21T17:34:12.707Z,0
2017-02-21T17:36:38.756Z,0
2017-02-21T17:39:02.279Z,0
2017-02-21T17:41:17.326Z,0
2017-02-21T17:43:40.889Z,0
2017-02-21T17:46:04.478Z,0
2017-02-21T17:48:45.680Z,0
2017-02-21T17:51:14.136Z,0
2017-02-21T17:55:54.350Z,0
2017-02-21T17:58:19.695Z,0
2017-02-21T18:00:42.852Z,0
2017-02-21T18:03:06.638Z,0
2017-02-21T18:05:30.123Z,0
2017-02-21T18:07:57.712Z,0
2017-02-21T18:21:25.734Z,0
2017-02-21T18:33:13.834Z,0
2017-02-21T18:35:37.349Z,0
2017-02-21T18:38:00.972Z,0
2017-02-21T18:40:26.637Z,0
2017-02-21T18:47:26.508Z,0
2017-02-21T18:49:50.830Z,0
2017-02-21T18:52:14.822Z,0
2017-02-21T18:54:39.372Z,0
2017-02-21T18:57:03.492Z,0
2017-02-21T18:59:26.997Z,0
2017-02-21T19:01:50.560Z,0
2017-02-21T19:04:14.442Z,0
2017-02-21T19:06:39.086Z,0
2017-02-21T19:09:06.001Z,0
2017-02-21T19:11:32.446Z,0
2017-02-21T19:17:16.608Z,0
2017-02-21T19:19:56.049Z,0
2017-02-21T19:22:20.052Z,0
2017-02-21T19:27:58.828Z,0
2017-02-21T19:30:22.353Z,0
2017-02-21T19:32:45.675Z,0
2017-02-21T19:35:09.100Z,0
2017-02-21T19:37:19.529Z,0
2017-02-21T19:39:43.025Z,0
2017-02-21T19:42:06.458Z,0
2017-02-21T19:44:29.854Z,0
2017-02-21T19:46:53.203Z,0
2017-02-21T19:49:16.571Z,0
2017-02-21T19:51:39.977Z,0
2017-02-21T19:54:03.367Z,0
2017-02-21T19:56:26.746Z,0
2017-02-21T19:58:50.088Z,0
2017-02-21T20:01:13.465Z,0
2017-02-21T20:03:36.843Z,0
2017-02-21T20:06:00.181Z,0
2017-02-21T20:08:23.502Z,0
2017-02-21T20:10:46.930Z,0
2017-02-21T20:13:10.312Z,0
2017-02-21T20:15:33.713Z,0
2017-02-21T20:17:58.070Z,0
2017-02-21T20:20:22.480Z,0
2017-02-21T20:22:45.825Z,0
2017-02-21T20:25:09.224Z,0
2017-02-21T20:27:32.622Z,0
2017-02-21T20:31:31.732Z,0
2017-02-21T20:33:55.167Z,0
2017-02-21T20:36:18.554Z,0
2017-02-21T20:38:41.954Z,0
2017-02-21T20:41:05.357Z,0
2017-02-21T20:43:28.830Z,0
2017-02-21T20:47:53.918Z,0
2017-02-21T20:50:17.426Z,0
2017-02-21T20:52:40.799Z,0
2017-02-21T20:55:04.114Z,0
2017-02-21T20:57:27.584Z,0
2017-02-21T20:59:50.951Z,0
2017-02-21T21:02:14.841Z,0
2017-02-21T21:06:26.627Z,0
2017-02-21T21:08:50.076Z,0
2017-02-21T21:11:13.423Z,0
2017-02-21T21:13:36.832Z,0
2017-02-21T21:16:00.262Z,0
2017-02-21T21:18:23.622Z,0
2017-02-21T21:20:47.500Z,0
2017-02-21T21:23:10.507Z,0
2017-02-21T21:25:33.907Z,0
2017-02-21T21:27:57.349Z,0
2017-02-21T21:30:21.654Z,0
2017-02-21T21:32:45.073Z,0
2017-02-21T21:35:08.493Z,0
2017-02-21T21:37:32.162Z,0
2017-02-21T21:39:56.060Z,0
2017-02-21T21:42:19.479Z,0
2017-02-21T21:44:42.861Z,0
2017-02-21T21:47:06.186Z,0
2017-02-21T21:49:29.700Z,0
2017-02-21T21:51:52.896Z,0
2017-02-21T21:54:16.275Z,0
2017-02-21T21:56:39.617Z,0
2017-02-21T21:59:03.042Z,0
2017-02-21T22:01:26.395Z,0
2017-02-21T22:03:49.750Z,0
2017-02-21T22:06:13.123Z,0
2017-02-21T22:08:36.613Z,0
2017-02-21T22:10:59.992Z,0
2017-02-21T22:13:23.451Z,0
2017-02-21T22:15:46.892Z,0
2017-02-21T22:18:01.960Z,0
2017-02-21T22:20:25.437Z,0
2017-02-21T22:22:48.911Z,0
2017-02-21T22:25:12.391Z,0
2017-02-21T22:27:35.848Z,0
2017-02-21T22:29:59.313Z,0
2017-02-21T22:32:22.796Z,0
2017-02-21T22:34:46.298Z,0
2017-02-21T22:37:09.718Z,0
2017-02-21T22:39:33.207Z,0
2017-02-21T22:41:56.653Z,0
2017-02-21T22:46:21.292Z,0
2017-02-21T22:48:44.821Z,0
2017-02-21T22:51:08.316Z,0
2017-02-21T22:53:31.776Z,0
2017-02-21T22:55:55.227Z,0
2017-02-21T22:58:18.702Z,0
2017-02-21T23:02:43.859Z,0
2017-02-21T23:05:07.270Z,0
2017-02-21T23:07:30.780Z,0
2017-02-21T23:09:54.213Z,0
2017-02-21T23:14:18.904Z,0
2017-02-21T23:16:42.293Z,0
2017-02-21T23:20:41.571Z,0
2017-02-21T23:23:05.099Z,0
2017-02-21T23:25:15.247Z,0
2017-02-21T23:27:38.722Z,0
2017-02-21T23:30:02.168Z,0
2017-02-21T23:32:25.656Z,0
2017-02-21T23:34:49.112Z,0
2017-02-21T23:37:12.482Z,0
2017-02-21T23:43:38.896Z,0
2017-02-21T23:46:02.321Z,0
2017-02-21T23:48:25.773Z,0
2017-02-21T23:50:49.238Z,0
2017-02-21T23:53:12.710Z,0
2017-02-21T23:55:36.174Z,0
2017-02-21T23:57:59.669Z,0
